Time;durP1;ratioP1;P1;durP2;ratioP2;P2;SDS_P1;SDS_P2;PMS_P1;PMS_P2;Temp;Humidity;BMP_temperature;BMP_pressure;BME280_temperature;BME280_humidity;BME280_pressure;Samples;Min_cycle;Max_cycle;Signal;HPM_P1;HPM_P2
2023/05/07 00:02:01;;;;;;;19.13;16.37;;;11.70;99.90;;;11.19;74.15;101408.16;5016845;28;20212;-73
2023/05/07 00:04:36;;;;;;;20.90;17.17;;;11.80;99.90;;;11.14;74.39;101405.91;5016663;28;20192;-73
2023/05/07 00:07:08;;;;;;;19.93;16.43;;;11.60;99.90;;;11.28;73.91;101412.63;5016623;28;20195;-73
2023/05/07 00:09:41;;;;;;;18.77;16.07;;;11.70;99.90;;;11.24;74.40;101405.84;5016505;28;20227;-73
2023/05/07 00:12:13;;;;;;;19.93;16.57;;;11.70;99.90;;;11.18;74.56;101409.97;5016563;28;20560;-73
2023/05/07 00:14:45;;;;;;;18.40;16.50;;;11.70;99.90;;;11.24;74.18;101405.84;5016789;28;20199;-73
2023/05/07 00:17:17;;;;;;;18.10;15.47;;;11.70;99.90;;;11.31;73.82;101406.09;5016489;28;20203;-73
2023/05/07 00:19:49;;;;;;;20.80;17.50;;;11.70;99.90;;;11.03;74.48;101408.75;5016300;28;20227;-73
2023/05/07 00:22:21;;;;;;;21.37;17.43;;;11.60;99.90;;;11.14;74.51;101405.06;5015972;28;20680;-73
2023/05/07 00:24:54;;;;;;;19.80;17.20;;;11.60;99.90;;;11.01;75.48;101410.75;5016802;28;20191;-73
2023/05/07 00:27:26;;;;;;;21.13;18.13;;;11.50;99.90;;;10.94;75.81;101408.81;5016244;28;20188;-73
2023/05/07 00:29:58;;;;;;;21.50;17.37;;;11.40;99.90;;;11.06;75.22;101415.69;5016129;28;20285;-73
2023/05/07 00:32:30;;;;;;;23.27;18.67;;;11.50;99.90;;;11.08;74.90;101402.97;5016019;28;20223;-73
2023/05/07 00:35:02;;;;;;;19.73;17.60;;;11.60;99.90;;;10.99;75.84;101401.19;5016109;28;20250;-73
2023/05/07 00:37:33;;;;;;;22.50;19.70;;;11.40;99.90;;;11.00;75.86;101392.13;5016325;28;20191;-73
2023/05/07 00:40:09;;;;;;;22.30;19.63;;;11.50;99.90;;;10.87;76.50;101389.78;5014980;28;20617;-73
2023/05/07 00:42:41;;;;;;;23.77;20.03;;;11.40;99.90;;;10.92;76.26;101387.53;5015880;28;20263;-73
2023/05/07 00:45:13;;;;;;;21.33;18.97;;;11.50;99.90;;;11.07;75.34;101394.09;5015901;28;20192;-73
2023/05/07 00:47:46;;;;;;;21.73;19.40;;;11.50;99.90;;;11.10;75.75;101385.75;5015818;28;20534;-73
2023/05/07 00:50:19;;;;;;;23.33;20.60;;;11.60;99.90;;;10.89;76.47;101384.31;5015803;28;20274;-73
2023/05/07 00:52:50;;;;;;;23.47;19.47;;;11.40;99.90;;;10.99;76.19;101385.94;5015478;28;20644;-73
2023/05/07 00:55:24;;;;;;;24.70;20.20;;;11.50;99.90;;;10.95;76.54;101384.56;5015430;28;20195;-73
2023/05/07 00:57:56;;;;;;;26.03;20.07;;;11.40;99.90;;;10.90;76.82;101388.66;5015935;28;20206;-73
2023/05/07 01:00:28;;;;;;;24.17;20.40;;;11.40;99.90;;;10.86;76.52;101389.94;5015493;28;20232;-73
2023/05/07 01:03:00;;;;;;;24.13;20.90;;;11.40;99.90;;;10.78;77.39;101387.16;5015518;28;20212;-73
2023/05/07 01:05:33;;;;;;;23.90;20.60;;;11.30;99.90;;;10.72;77.43;101382.38;5015541;28;20195;-73
2023/05/07 01:08:08;;;;;;;24.27;20.37;;;11.20;99.90;;;10.84;76.54;101383.88;5015207;28;20192;-73
2023/05/07 01:10:42;;;;;;;23.93;20.73;;;11.30;99.90;;;10.78;77.73;101387.16;5015361;28;20228;-73
2023/05/07 01:13:15;;;;;;;22.83;19.90;;;11.30;99.90;;;10.86;76.95;101379.22;5015385;28;20270;-73
2023/05/07 01:15:47;;;;;;;23.00;20.10;;;11.30;99.90;;;10.77;77.22;101374.75;5015371;28;20188;-73
2023/05/07 01:18:20;;;;;;;23.13;19.30;;;11.30;99.90;;;10.85;76.58;101382.91;5015327;28;20191;-73
2023/05/07 01:20:51;;;;;;;22.53;19.07;;;11.30;99.90;;;10.92;76.60;101386.69;5015185;28;20250;-73
2023/05/07 01:23:25;;;;;;;24.70;19.47;;;11.40;99.90;;;10.86;76.54;101385.41;5015366;28;20212;-73
2023/05/07 01:25:57;;;;;;;22.20;19.33;;;11.40;99.90;;;10.80;76.61;101388.69;5015525;28;20195;-73
2023/05/07 01:28:29;;;;;;;24.73;20.03;;;11.30;99.90;;;10.72;77.32;101385.88;5015000;28;20652;-73
2023/05/07 01:31:06;;;;;;;21.70;18.13;;;11.20;99.90;;;10.75;77.14;101388.31;5014908;28;20855;-73
2023/05/07 01:33:42;;;;;;;25.33;19.50;;;11.20;99.90;;;10.61;76.63;101386.94;5014887;28;20253;-72
2023/05/07 01:36:16;;;;;;;25.27;20.43;;;11.30;99.90;;;10.74;76.54;101396.47;5015070;28;20204;-73
2023/05/07 01:38:49;;;;;;;23.63;20.43;;;11.20;99.90;;;10.72;76.70;101403.81;5014976;28;20196;-72
2023/05/07 01:41:21;;;;;;;24.20;20.13;;;11.20;99.90;;;10.71;76.70;101396.75;5015006;28;20204;-73
2023/05/07 01:43:58;;;;;;;24.03;21.27;;;11.20;99.90;;;10.79;76.63;101399.56;5014991;28;20192;-73
2023/05/07 01:46:32;;;;;;;23.97;21.37;;;11.30;99.90;;;10.80;76.82;101390.53;5014621;28;20571;-73
2023/05/07 01:49:04;;;;;;;22.53;19.93;;;11.30;99.90;;;10.71;76.31;101386.91;5014830;28;20231;-73
2023/05/07 01:51:37;;;;;;;24.70;21.30;;;11.30;99.90;;;10.80;76.00;101387.84;5014320;28;20195;-73
2023/05/07 01:54:10;;;;;;;24.27;19.80;;;11.30;99.90;;;10.72;76.12;101390.44;5014462;28;20196;-72
2023/05/07 01:56:42;;;;;;;22.70;18.87;;;11.20;99.90;;;10.78;76.18;101392.50;5014473;28;20196;-72
2023/05/07 01:59:14;;;;;;;19.30;16.83;;;11.30;99.90;;;10.61;76.50;101391.44;5014633;28;20319;-73
2023/05/07 02:01:46;;;;;;;21.80;17.03;;;11.10;99.90;;;10.72;75.51;101393.91;5014596;28;20203;-72
2023/05/07 02:04:17;;;;;;;20.07;16.97;;;11.20;99.90;;;10.57;76.00;101390.88;5014647;28;20241;-72
2023/05/07 02:06:49;;;;;;;20.67;17.40;;;11.20;99.90;;;10.59;76.39;101396.91;5014324;28;20668;-73
2023/05/07 02:09:23;;;;;;;23.80;17.17;;;11.10;99.90;;;10.55;76.29;101384.81;5014484;28;20574;-72
2023/05/07 02:11:55;;;;;;;20.10;16.57;;;11.10;99.90;;;10.63;76.54;101379.59;5014711;28;20196;-72
2023/05/07 02:14:27;;;;;;;18.57;16.53;;;11.10;99.90;;;10.48;76.83;101381.00;5014477;28;20192;-72
2023/05/07 02:16:59;;;;;;;16.37;14.60;;;11.00;99.90;;;10.40;76.55;101390.78;5014107;28;20656;-73
2023/05/07 02:19:31;;;;;;;18.73;14.17;;;11.00;99.90;;;10.45;76.45;101391.16;5014295;28;20231;-73
2023/05/07 02:22:03;;;;;;;16.20;13.80;;;11.00;99.90;;;10.53;75.92;101391.31;5014479;28;20664;-73
2023/05/07 02:24:35;;;;;;;14.83;13.23;;;11.10;99.90;;;10.63;75.80;101392.13;5014278;28;20195;-73
2023/05/07 02:27:07;;;;;;;19.53;15.17;;;11.20;99.90;;;10.62;75.98;101391.28;5014262;28;20195;-73
2023/05/07 02:29:39;;;;;;;21.27;17.53;;;11.20;99.90;;;10.58;76.18;101397.91;5013815;28;20587;-73
2023/05/07 02:32:11;;;;;;;18.77;15.87;;;11.10;99.90;;;10.48;76.46;101397.06;5014203;28;20211;-73
2023/05/07 02:34:43;;;;;;;19.37;16.10;;;11.10;99.90;;;10.46;76.36;101404.41;5014117;28;20196;-73
2023/05/07 02:37:15;;;;;;;18.87;15.93;;;11.00;99.90;;;10.38;76.91;101396.25;5014062;28;20196;-73
2023/05/07 02:39:48;;;;;;;20.30;17.10;;;10.90;99.90;;;10.34;76.95;101408.25;5013708;28;20255;-73
2023/05/07 02:42:20;;;;;;;19.67;16.23;;;10.90;99.90;;;10.27;77.10;101409.81;5013901;28;20207;-73
2023/05/07 02:44:52;;;;;;;17.37;14.70;;;10.80;99.90;;;10.33;77.22;101409.22;5013956;28;20195;-73
2023/05/07 02:47:26;;;;;;;15.77;13.57;;;10.90;99.90;;;10.47;76.28;101413.31;5013950;28;20215;-73
2023/05/07 02:49:58;;;;;;;18.23;14.23;;;11.00;99.90;;;10.45;76.29;101412.59;5013643;28;20811;-73
2023/05/07 02:52:31;;;;;;;15.37;13.43;;;11.00;99.90;;;10.39;76.50;101407.81;5014228;28;20204;-71
2023/05/07 02:55:03;;;;;;;15.57;13.57;;;10.90;99.90;;;10.34;76.42;101416.28;5014039;28;20195;-72
2023/05/07 02:57:35;;;;;;;15.93;13.67;;;10.90;99.90;;;10.38;76.32;101406.97;5013731;28;20676;-73
2023/05/07 03:00:16;;;;;;;16.07;14.07;;;10.90;99.90;;;10.30;75.91;101409.53;5013413;28;20712;-73
2023/05/07 03:02:48;;;;;;;16.00;14.10;;;10.90;99.90;;;10.20;76.47;101408.69;5013590;28;20218;-73
2023/05/07 03:05:20;;;;;;;17.40;13.70;;;10.70;99.90;;;10.17;76.67;101409.78;5013671;28;20191;-72
2023/05/07 03:07:52;;;;;;;16.60;14.57;;;10.70;99.90;;;10.06;77.28;101407.25;5013721;28;20203;-72
2023/05/07 03:10:25;;;;;;;17.40;15.30;;;10.60;99.90;;;9.99;77.48;101406.13;5013576;28;20227;-72
2023/05/07 03:12:57;;;;;;;16.33;14.43;;;10.60;99.90;;;10.07;77.28;101405.38;5013607;28;20188;-72
2023/05/07 03:15:29;;;;;;;17.60;14.20;;;10.60;99.90;;;10.07;77.69;101400.88;5013332;28;20187;-73
2023/05/07 03:18:01;;;;;;;16.13;13.93;;;10.60;99.90;;;10.05;77.65;101394.84;5013876;28;20195;-73
2023/05/07 03:20:36;;;;;;;15.93;13.90;;;10.60;99.90;;;10.11;77.33;101388.06;5013328;28;20231;-73
2023/05/07 03:23:08;;;;;;;15.27;13.40;;;10.70;99.90;;;10.12;76.92;101398.66;5013428;28;20211;-73
2023/05/07 03:25:41;;;;;;;16.23;13.63;;;10.70;99.90;;;10.15;76.98;101402.91;5013639;28;20199;-73
2023/05/07 03:28:12;;;;;;;14.70;13.13;;;10.70;99.90;;;10.13;77.21;101403.03;5013153;28;20195;-73
2023/05/07 03:30:44;;;;;;;14.83;13.23;;;10.70;99.90;;;10.07;77.01;101405.38;5013388;28;20223;-73
2023/05/07 03:33:16;;;;;;;14.83;13.23;;;10.70;99.90;;;10.08;77.15;101404.41;5013379;28;20211;-74
2023/05/07 03:35:48;;;;;;;15.63;14.03;;;10.60;99.90;;;10.11;77.69;101404.97;5013434;28;20207;-73
2023/05/07 03:38:20;;;;;;;15.97;12.87;;;10.70;99.90;;;10.14;77.26;101399.38;5013417;28;20199;-72
2023/05/07 03:40:53;;;;;;;15.27;13.60;;;10.70;99.90;;;10.13;77.48;101396.81;5013357;28;20231;-72
2023/05/07 03:43:25;;;;;;;16.07;14.00;;;10.70;99.90;;;10.07;77.57;101392.00;5013259;28;20208;-73
2023/05/07 03:45:57;;;;;;;14.87;13.30;;;10.60;99.90;;;10.09;77.63;101395.41;5013036;28;20557;-72
2023/05/07 03:48:29;;;;;;;15.43;13.83;;;10.70;99.90;;;10.05;77.88;101388.66;5013059;28;20188;-72
2023/05/07 03:51:00;;;;;;;13.70;12.33;;;10.60;99.90;;;10.12;77.65;101385.28;5013179;28;20313;-72
2023/05/07 03:53:32;;;;;;;14.00;12.50;;;10.70;99.90;;;10.06;77.38;101390.34;5013307;28;20210;-72
2023/05/07 03:56:05;;;;;;;14.87;13.37;;;10.60;99.90;;;9.98;77.90;101390.19;5013277;28;20207;-73
2023/05/07 03:58:37;;;;;;;13.23;11.83;;;10.60;99.90;;;10.00;78.01;101393.59;5013259;28;20199;-72
2023/05/07 04:01:09;;;;;;;14.77;12.27;;;10.60;99.90;;;10.05;77.72;101396.69;5012823;28;20238;-72
2023/05/07 04:03:41;;;;;;;13.70;12.27;;;10.60;99.90;;;10.03;77.96;101393.31;5013099;28;20218;-70
2023/05/07 04:06:14;;;;;;;13.73;12.10;;;10.60;99.90;;;9.97;78.21;101401.88;5013618;28;20192;-75
2023/05/07 04:08:45;;;;;;;13.50;12.10;;;10.60;99.90;;;9.97;77.99;101407.22;5013883;28;20271;-75
2023/05/07 04:11:20;;;;;;;13.90;11.53;;;10.60;99.90;;;9.98;77.53;101411.59;5014028;28;20195;-74
2023/05/07 04:13:52;;;;;;;13.47;12.07;;;10.60;99.90;;;9.95;77.36;101409.19;5014017;28;20187;-75
2023/05/07 04:16:23;;;;;;;13.90;12.40;;;10.50;99.90;;;9.99;77.98;101415.97;5015714;28;20663;-74
2023/05/07 04:18:55;;;;;;;12.87;11.53;;;10.50;99.90;;;9.97;78.15;101409.91;5017219;28;20636;-74
2023/05/07 04:21:27;;;;;;;13.70;12.30;;;10.50;99.90;;;10.00;77.89;101418.47;5017613;28;20187;-75
2023/05/07 04:23:59;;;;;;;13.27;11.43;;;10.60;99.90;;;9.88;78.30;101421.44;5017234;28;20238;-75
2023/05/07 04:26:33;;;;;;;13.40;11.27;;;10.40;99.90;;;9.82;78.49;101419.34;5017404;28;20188;-75
2023/05/07 04:29:05;;;;;;;13.33;11.93;;;10.50;99.90;;;9.90;77.76;101428.34;5017097;28;20707;-75
2023/05/07 04:31:37;;;;;;;12.70;11.40;;;10.50;99.90;;;9.88;77.46;101424.13;5016864;28;20687;-74
2023/05/07 04:34:09;;;;;;;13.17;11.77;;;10.50;99.90;;;9.86;78.12;101431.44;5016959;28;20608;-74
2023/05/07 04:36:41;;;;;;;13.23;11.23;;;10.50;99.90;;;9.83;78.29;101434.41;5017075;28;20199;-74
2023/05/07 04:39:12;;;;;;;12.67;11.20;;;10.40;99.90;;;9.88;77.34;101429.47;5016931;28;20227;-74
2023/05/07 04:41:46;;;;;;;13.13;11.73;;;10.50;99.90;;;9.87;77.19;101435.78;5016932;28;20212;-74
2023/05/07 04:44:18;;;;;;;14.47;12.63;;;10.40;99.90;;;9.84;77.62;101434.25;5016701;28;20269;-74
2023/05/07 04:46:49;;;;;;;13.83;12.33;;;10.40;99.90;;;9.82;77.35;101440.72;5016617;28;20200;-74
2023/05/07 04:49:21;;;;;;;11.60;10.40;;;10.40;99.90;;;9.87;77.03;101438.47;5017341;28;20243;-75
2023/05/07 04:51:53;;;;;;;11.37;10.17;;;10.40;99.90;;;9.82;77.31;101440.72;5016713;28;20203;-75
2023/05/07 04:54:25;;;;;;;11.57;10.33;;;10.40;99.90;;;9.81;76.65;101444.38;5016820;28;20222;-75
2023/05/07 04:56:58;;;;;;;11.30;10.07;;;10.40;99.90;;;9.76;76.61;101446.63;5016709;28;20191;-75
2023/05/07 04:59:30;;;;;;;11.07;9.97;;;10.30;99.90;;;9.80;76.45;101454.22;5016566;28;20228;-75
2023/05/07 05:02:03;;;;;;;10.13;9.13;;;10.40;99.90;;;9.86;76.21;101452.84;5016652;28;20296;-74
2023/05/07 05:04:36;;;;;;;10.87;9.77;;;10.40;99.90;;;9.73;75.98;101463.78;5016608;28;20211;-75
2023/05/07 05:07:08;;;;;;;11.10;9.10;;;10.40;99.90;;;9.75;75.95;101472.53;5016475;28;20203;-75
2023/05/07 05:09:40;;;;;;;11.47;9.67;;;10.40;99.90;;;9.78;75.67;101477.59;5016550;28;20238;-75
2023/05/07 05:12:13;;;;;;;10.03;8.67;;;10.40;99.90;;;9.76;75.73;101470.69;5016627;28;20555;-75
2023/05/07 05:14:45;;;;;;;10.63;9.53;;;10.40;99.90;;;9.75;75.67;101472.53;5016576;28;20188;-75
2023/05/07 05:17:16;;;;;;;10.00;8.53;;;10.40;99.90;;;9.80;76.02;101480.13;5016842;28;20192;-75
2023/05/07 05:19:48;;;;;;;9.97;8.97;;;10.40;99.90;;;9.78;76.29;101471.41;5016360;28;20232;-75
2023/05/07 05:22:20;;;;;;;10.20;9.13;;;10.40;99.90;;;9.83;75.39;101471.84;5016052;28;20202;-75
2023/05/07 05:24:52;;;;;;;10.10;9.03;;;10.40;99.90;;;9.82;75.52;101483.50;5016201;28;20306;-75
2023/05/07 05:27:25;;;;;;;10.17;9.17;;;10.40;99.90;;;9.85;75.51;101483.22;5016028;28;20203;-75
2023/05/07 05:29:57;;;;;;;9.23;8.10;;;10.50;99.90;;;9.83;74.66;101474.53;5016471;28;20227;-75
2023/05/07 05:32:29;;;;;;;10.13;9.13;;;10.50;99.90;;;9.77;74.77;101480.41;5018397;28;20684;-75
2023/05/07 05:35:01;;;;;;;9.77;8.77;;;10.40;99.90;;;9.83;75.87;101469.16;5018415;28;20191;-76
2023/05/07 05:37:33;;;;;;;11.00;9.90;;;10.40;99.90;;;9.85;75.78;101472.53;5018985;28;20191;-75
2023/05/07 05:40:06;;;;;;;10.53;9.43;;;10.40;99.90;;;9.95;75.40;101478.75;5018260;28;20231;-75
2023/05/07 05:42:40;;;;;;;11.17;9.97;;;10.50;99.90;;;9.95;74.81;101481.44;5017151;28;20203;-75
2023/05/07 05:45:12;;;;;;;10.37;9.37;;;10.60;99.90;;;9.95;75.12;101470.72;5017965;28;20208;-75
2023/05/07 05:47:44;;;;;;;10.77;9.67;;;10.60;99.90;;;9.89;74.80;101479.31;5016244;28;20255;-75
2023/05/07 05:50:16;;;;;;;10.30;9.30;;;10.50;99.90;;;9.80;74.85;101480.13;5015622;28;20317;-75
2023/05/07 05:52:48;;;;;;;10.57;9.60;;;10.40;99.90;;;9.83;74.89;101479.88;5015050;28;20192;-75
2023/05/07 05:55:21;;;;;;;10.20;9.20;;;10.40;99.90;;;9.78;74.49;101474.06;5015190;28;20234;-75
2023/05/07 05:57:55;;;;;;;10.23;9.30;;;10.40;99.90;;;9.87;74.56;101481.25;5015025;28;20194;-74
2023/05/07 06:00:30;;;;;;;9.90;8.90;;;10.50;99.90;;;9.87;74.07;101466.06;5014322;28;20231;-74
2023/05/07 06:03:02;;;;;;;9.97;8.97;;;10.50;99.90;;;9.94;74.02;101477.06;5013520;28;20191;-73
2023/05/07 06:05:34;;;;;;;9.30;8.43;;;10.50;99.90;;;9.95;74.32;101486.78;5014641;28;20211;-73
2023/05/07 06:08:06;;;;;;;15.60;9.30;;;10.60;99.90;;;9.91;73.69;101488.88;5014363;28;20210;-73
2023/05/07 06:10:38;;;;;;;9.13;8.23;;;11.50;99.90;;;10.04;73.85;101494.81;5014630;28;20250;-73
2023/05/07 06:13:11;;;;;;;9.63;8.73;;;10.70;99.90;;;10.10;73.96;101509.47;5014467;28;20203;-73
2023/05/07 06:15:45;;;;;;;9.60;8.80;;;10.70;99.90;;;10.02;73.28;101486.09;5013569;28;20192;-73
2023/05/07 06:18:20;;;;;;;10.20;9.20;;;10.60;99.90;;;9.95;73.25;101484.94;5014224;28;20200;-73
2023/05/07 06:20:54;;;;;;;9.93;8.97;;;10.60;99.90;;;10.01;73.54;101488.88;5014197;28;20230;-73
2023/05/07 06:23:26;;;;;;;9.17;8.33;;;10.60;99.90;;;10.10;73.50;101485.41;5014500;28;20206;-72
2023/05/07 06:25:58;;;;;;;8.73;7.93;;;10.70;99.90;;;10.13;73.03;101482.44;5014172;28;20234;-72
2023/05/07 06:28:35;;;;;;;9.67;8.73;;;10.70;99.90;;;10.05;72.99;101488.47;5014244;28;20192;-73
2023/05/07 06:31:17;;;;;;;10.33;9.33;;;10.70;99.80;;;10.03;73.67;101489.63;5013757;28;20782;-73
2023/05/07 06:33:50;;;;;;;9.90;8.90;;;10.70;99.90;;;10.08;73.50;101490.88;5013788;28;20265;-73
2023/05/07 06:36:22;;;;;;;10.40;9.40;;;10.70;99.90;;;10.05;73.35;101490.31;5013944;28;20199;-73
2023/05/07 06:38:54;;;;;;;11.87;10.43;;;10.70;99.90;;;9.94;73.37;101493.94;5014017;28;20200;-73
2023/05/07 06:41:26;;;;;;;11.97;10.80;;;10.60;99.90;;;10.09;73.72;101492.59;5012277;28;20191;-73
2023/05/07 06:43:59;;;;;;;11.27;10.27;;;10.70;99.90;;;10.03;73.84;101495.78;5013988;28;20191;-73
2023/05/07 06:46:32;;;;;;;11.60;10.50;;;10.70;99.90;;;10.13;73.72;101488.66;5013575;28;20192;-73
2023/05/07 06:49:04;;;;;;;12.00;10.87;;;10.80;99.90;;;10.10;73.40;101494.25;5013339;28;20191;-73
2023/05/07 06:51:37;;;;;;;10.67;9.67;;;10.70;99.90;;;10.12;73.10;101492.28;5013616;28;20241;-73
2023/05/07 06:54:09;;;;;;;12.37;11.10;;;10.70;99.90;;;10.17;73.48;101489.25;5013702;28;20196;-72
2023/05/07 06:56:41;;;;;;;13.30;12.00;;;10.80;99.90;;;10.17;73.34;101495.41;5013784;28;20230;-73
2023/05/07 06:59:14;;;;;;;13.87;12.57;;;10.80;99.90;;;10.16;73.23;101493.75;5013806;28;20227;-73
2023/05/07 07:01:46;;;;;;;12.90;11.60;;;10.80;99.90;;;10.20;73.19;101505.03;5013688;28;20199;-73
2023/05/07 07:04:18;;;;;;;13.13;11.87;;;10.80;99.90;;;10.12;73.23;101496.78;5013044;28;20274;-72
2023/05/07 07:06:50;;;;;;;13.50;12.20;;;10.70;99.90;;;10.16;73.30;101500.94;5014012;28;20192;-72
2023/05/07 07:09:22;;;;;;;12.50;11.20;;;10.80;99.90;;;10.13;73.38;101506.53;5013846;28;20231;-73
2023/05/07 07:11:55;;;;;;;12.93;11.63;;;10.80;99.90;;;10.20;73.12;101509.53;5013905;28;20203;-73
2023/05/07 07:14:28;;;;;;;12.73;11.53;;;10.80;99.90;;;10.19;73.31;101500.66;5013848;28;20362;-72
2023/05/07 07:17:00;;;;;;;12.27;11.13;;;10.80;99.90;;;10.22;72.57;101497.69;5013894;28;20203;-72
2023/05/07 07:19:32;;;;;;;12.73;11.53;;;10.90;99.70;;;10.21;72.29;101506.69;5013653;28;20227;-72
2023/05/07 07:22:03;;;;;;;13.23;11.17;;;10.90;99.50;;;10.23;72.96;101510.09;5013757;28;20196;-73
2023/05/07 07:24:35;;;;;;;12.10;10.93;;;10.80;99.60;;;10.31;72.73;101507.53;5013439;28;20655;-73
2023/05/07 07:27:07;;;;;;;10.47;9.47;;;10.90;99.70;;;10.37;71.69;101517.72;5013384;28;20196;-73
2023/05/07 07:29:40;;;;;;;10.00;9.10;;;11.00;99.30;;;10.45;72.06;101520.50;5013866;28;20223;-73
2023/05/07 07:32:12;;;;;;;10.53;9.53;;;11.10;99.30;;;10.46;71.46;101522.22;5013438;28;20215;-73
2023/05/07 07:34:44;;;;;;;9.80;8.80;;;11.10;99.10;;;10.50;71.20;101518.28;5013367;28;20556;-73
2023/05/07 07:37:16;;;;;;;9.40;8.50;;;11.10;99.10;;;10.51;71.16;101519.94;5013724;28;20196;-73
2023/05/07 07:39:48;;;;;;;9.10;8.30;;;11.10;99.00;;;10.47;70.61;101525.75;5013502;28;20231;-73
2023/05/07 07:42:21;;;;;;;8.80;8.07;;;11.10;98.60;;;10.46;70.64;101527.56;5014334;28;20215;-73
2023/05/07 07:44:54;;;;;;;9.13;8.27;;;11.10;98.70;;;10.49;70.27;101511.22;5013538;28;20211;-73
2023/05/07 07:47:26;;;;;;;9.13;8.23;;;11.10;98.70;;;10.56;70.67;101523.06;5013265;28;20649;-73
2023/05/07 07:49:58;;;;;;;8.87;8.07;;;11.20;98.70;;;10.56;70.27;101528.41;5013460;28;20242;-73
2023/05/07 07:52:30;;;;;;;9.30;8.33;;;11.20;98.50;;;10.58;70.69;101523.75;5017000;28;20554;-72
2023/05/07 07:55:02;;;;;;;9.17;8.27;;;11.20;98.70;;;10.66;71.22;101521.22;5017205;28;20188;-72
2023/05/07 07:57:35;;;;;;;9.17;8.23;;;11.30;98.90;;;10.74;70.47;101519.66;5017268;28;20199;-72
2023/05/07 08:00:12;;;;;;;9.20;8.30;;;11.40;98.80;;;10.73;70.65;101523.31;5017125;28;20227;-73
2023/05/07 08:02:44;;;;;;;8.60;7.80;;;11.30;98.60;;;10.78;70.61;101526.44;5016823;28;20559;-73
2023/05/07 08:05:16;;;;;;;8.93;8.13;;;11.40;98.60;;;10.79;70.53;101528.13;5016743;28;20672;-73
2023/05/07 08:07:51;;;;;;;9.23;8.33;;;11.40;98.40;;;10.87;70.08;101533.59;5017065;28;20744;-73
2023/05/07 08:10:25;;;;;;;9.10;8.20;;;11.50;98.50;;;10.99;70.89;101530.63;5016643;28;20231;-73
2023/05/07 08:12:57;;;;;;;9.03;8.23;;;11.60;98.90;;;10.99;70.05;101529.78;5016964;28;20261;-73
2023/05/07 08:15:30;;;;;;;8.40;7.70;;;11.60;98.30;;;11.06;70.26;101521.00;5016921;28;20245;-73
2023/05/07 08:18:03;;;;;;;8.20;7.40;;;11.70;98.40;;;11.13;70.07;101521.28;5017110;28;20256;-73
2023/05/07 08:20:39;;;;;;;8.67;7.77;;;11.70;98.50;;;11.24;71.06;101534.50;5016819;28;20224;-73
2023/05/07 08:23:12;;;;;;;9.00;7.60;;;11.90;98.80;;;11.28;69.96;101519.84;5016693;28;20281;-73
2023/05/07 08:25:46;;;;;;;7.60;6.90;;;11.90;98.20;;;11.33;69.59;101532.81;5016597;28;20756;-73
2023/05/07 08:28:19;;;;;;;8.20;7.40;;;11.90;98.40;;;11.32;69.31;101536.47;5016658;28;20222;-73
2023/05/07 08:30:52;;;;;;;8.83;7.97;;;11.90;98.00;;;11.37;69.31;101534.22;5016710;28;20235;-73
2023/05/07 08:33:24;;;;;;;8.80;8.00;;;12.00;98.10;;;11.45;70.34;101532.47;5016152;28;20257;-73
2023/05/07 08:35:56;;;;;;;9.00;8.17;;;12.10;98.40;;;11.44;68.54;101538.81;5016461;28;20198;-73
2023/05/07 08:38:28;;;;;;;10.27;8.33;;;12.10;97.60;;;11.45;68.03;101543.19;5016911;28;20198;-73
2023/05/07 08:41:00;;;;;;;8.77;7.97;;;12.10;97.60;;;11.45;68.51;101542.34;5016302;28;20286;-73
2023/05/07 08:43:37;;;;;;;8.03;7.33;;;12.10;97.60;;;11.40;68.10;101545.50;5016442;28;20199;-73
2023/05/07 08:46:12;;;;;;;9.37;8.47;;;12.00;97.50;;;11.43;68.40;101539.84;5016285;28;20222;-73
2023/05/07 08:48:45;;;;;;;8.97;8.17;;;12.00;97.70;;;11.47;68.41;101540.38;5016256;28;20187;-73
2023/05/07 08:51:20;;;;;;;9.57;8.53;;;12.00;97.70;;;11.61;69.08;101542.56;5015848;28;20605;-73
2023/05/07 08:53:53;;;;;;;9.30;8.37;;;12.20;97.90;;;11.45;67.58;101540.53;5016156;28;20187;-73
2023/05/07 08:56:25;;;;;;;9.27;8.37;;;12.00;97.20;;;11.55;68.90;101544.00;5016346;28;20188;-73
2023/05/07 08:58:58;;;;;;;8.87;8.07;;;12.20;97.70;;;11.64;69.35;101547.66;5015730;28;20196;-73
2023/05/07 09:01:31;;;;;;;8.90;8.00;;;12.20;97.90;;;11.60;68.64;101549.78;5015546;28;20200;-73
2023/05/07 09:04:03;;;;;;;9.57;7.90;;;12.20;97.30;;;11.63;67.71;101557.53;5016203;28;20195;-73
2023/05/07 09:06:36;;;;;;;8.00;7.17;;;12.20;97.30;;;11.72;68.04;101554.97;5015683;28;20616;-73
2023/05/07 09:09:08;;;;;;;9.27;8.27;;;12.40;97.60;;;11.83;68.67;101557.47;5015527;28;20235;-73
2023/05/07 09:11:40;;;;;;;10.27;9.27;;;12.40;97.60;;;11.88;68.35;101549.84;5015736;28;20212;-73
2023/05/07 09:14:12;;;;;;;12.23;8.90;;;12.50;97.60;;;11.92;67.77;101557.44;5015984;28;20202;-73
2023/05/07 09:16:47;;;;;;;9.43;8.47;;;12.50;97.20;;;12.01;67.98;101553.88;5015700;28;20184;-73
2023/05/07 09:19:25;;;;;;;9.57;8.67;;;12.60;97.30;;;12.09;68.15;101553.09;5015299;28;20593;-73
2023/05/07 09:22:06;;;;;;;9.73;8.83;;;12.70;97.40;;;12.05;67.36;101549.03;5015705;28;20195;-73
2023/05/07 09:24:42;;;;;;;9.47;8.53;;;12.60;96.80;;;12.18;67.83;101557.56;5015856;28;20198;-73
2023/05/07 09:27:13;;;;;;;9.20;8.33;;;12.80;97.20;;;12.21;66.80;101559.97;5015434;28;20218;-73
2023/05/07 09:29:46;;;;;;;9.13;8.17;;;12.80;96.70;;;12.29;66.86;101552.00;5015458;28;20231;-73
2023/05/07 09:32:19;;;;;;;9.17;8.27;;;12.80;96.80;;;12.34;67.11;101555.06;5015250;28;20224;-73
2023/05/07 09:34:51;;;;;;;9.70;8.80;;;13.00;96.90;;;12.38;66.83;101564.50;5015022;28;20208;-73
2023/05/07 09:37:26;;;;;;;10.10;9.20;;;13.00;96.60;;;12.31;65.42;101560.75;5014970;28;20565;-73
2023/05/07 09:39:58;;;;;;;12.47;11.27;;;12.90;96.50;;;12.36;67.06;101555.78;5015163;28;20222;-72
2023/05/07 09:42:30;;;;;;;11.03;9.97;;;12.90;96.70;;;12.37;66.54;101560.13;5015247;28;20226;-73
2023/05/07 09:45:06;;;;;;;10.87;9.87;;;12.90;96.60;;;12.38;66.47;101563.66;5015184;28;20187;-73
2023/05/07 09:47:45;;;;;;;11.87;10.10;;;12.90;96.40;;;12.33;66.00;101565.97;5015081;28;20269;-73
2023/05/07 09:50:20;;;;;;;10.90;9.90;;;12.90;96.10;;;12.33;66.40;101564.09;5015070;28;20227;-73
2023/05/07 09:52:53;;;;;;;11.43;10.37;;;12.90;96.20;;;12.42;65.79;101555.16;5014700;28;20678;-73
2023/05/07 09:55:26;;;;;;;12.07;10.97;;;13.00;96.60;;;12.43;65.60;101553.31;5015059;28;20192;-73
2023/05/07 09:57:58;;;;;;;11.90;10.73;;;13.00;96.20;;;12.44;64.89;101553.16;5014697;28;20695;-73
2023/05/07 10:00:33;;;;;;;12.07;10.87;;;13.00;96.00;;;12.49;66.70;101545.50;5014857;28;20227;-73
2023/05/07 10:03:09;;;;;;;11.37;10.23;;;13.00;96.20;;;12.47;64.94;101550.16;5014858;28;20195;-72
2023/05/07 10:05:44;;;;;;;10.00;9.00;;;13.10;95.90;;;12.48;65.53;101548.31;5014555;28;20195;-73
2023/05/07 10:08:16;;;;;;;10.40;9.40;;;13.00;95.70;;;12.65;65.93;101547.47;5014806;28;20230;-73
2023/05/07 10:10:50;;;;;;;10.20;9.20;;;13.20;96.40;;;12.66;65.68;101558.09;5014985;28;20227;-73
2023/05/07 10:13:21;;;;;;;10.13;9.13;;;13.20;95.90;;;12.67;64.08;101554.38;5013574;28;20732;-73
2023/05/07 10:15:57;;;;;;;9.37;8.47;;;13.20;95.50;;;12.76;64.75;101546.41;5014680;28;20187;-73
2023/05/07 10:18:32;;;;;;;9.97;8.97;;;13.30;95.60;;;12.81;63.56;101554.84;5014580;28;20738;-73
2023/05/07 10:21:12;;;;;;;9.03;8.23;;;13.30;95.80;;;12.99;63.53;101561.03;5014240;28;20652;-73
2023/05/07 10:23:50;;;;;;;10.03;9.13;;;13.50;95.30;;;12.66;63.64;101568.81;5014227;28;20653;-72
2023/05/07 10:26:26;;;;;;;9.60;8.70;;;13.20;94.70;;;12.84;64.42;101567.97;5014329;28;20220;-73
2023/05/07 10:29:07;;;;;;;8.33;7.63;;;13.40;95.80;;;12.94;65.47;101566.91;5014091;28;20195;-73